sensor_id;sensor_type;location;lat;lon;timestamp;P1;durP1;ratioP1;P2;durP2;ratioP2
63975;SDS011;50167;47.958;21.780;2024-01-15T00:01:00;75.85;;;40.30;;
63975;SDS011;50167;47.958;21.780;2024-01-15T00:03:26;76.90;;;42.75;;
63975;SDS011;50167;47.958;21.780;2024-01-15T00:05:52;79.10;;;43.75;;
63975;SDS011;50167;47.958;21.780;2024-01-15T00:08:19;75.78;;;43.50;;
63975;SDS011;50167;47.958;21.780;2024-01-15T00:10:45;70.62;;;40.00;;
63975;SDS011;50167;47.958;21.780;2024-01-15T00:13:11;73.00;;;42.08;;
63975;SDS011;50167;47.958;21.780;2024-01-15T00:15:37;81.30;;;42.85;;
63975;SDS011;50167;47.958;21.780;2024-01-15T00:18:03;76.57;;;40.75;;
63975;SDS011;50167;47.958;21.780;2024-01-15T00:20:30;74.90;;;42.43;;
63975;SDS011;50167;47.958;21.780;2024-01-15T00:22:56;81.20;;;44.18;;
63975;SDS011;50167;47.958;21.780;2024-01-15T00:25:22;113.37;;;59.03;;
63975;SDS011;50167;47.958;21.780;2024-01-15T00:27:49;97.42;;;49.55;;
63975;SDS011;50167;47.958;21.780;2024-01-15T00:30:15;72.10;;;43.92;;
63975;SDS011;50167;47.958;21.780;2024-01-15T00:32:41;76.80;;;45.35;;
63975;SDS011;50167;47.958;21.780;2024-01-15T00:35:08;84.13;;;43.25;;
63975;SDS011;50167;47.958;21.780;2024-01-15T00:37:34;76.45;;;42.67;;
63975;SDS011;50167;47.958;21.780;2024-01-15T00:40:01;79.87;;;42.48;;
63975;SDS011;50167;47.958;21.780;2024-01-15T00:42:28;81.95;;;46.30;;
63975;SDS011;50167;47.958;21.780;2024-01-15T00:44:54;86.92;;;45.17;;
63975;SDS011;50167;47.958;21.780;2024-01-15T00:47:20;77.97;;;42.90;;
63975;SDS011;50167;47.958;21.780;2024-01-15T00:49:46;84.85;;;44.55;;
63975;SDS011;50167;47.958;21.780;2024-01-15T00:52:13;78.33;;;44.85;;
63975;SDS011;50167;47.958;21.780;2024-01-15T00:54:39;71.77;;;41.50;;
63975;SDS011;50167;47.958;21.780;2024-01-15T00:57:05;78.50;;;44.48;;
63975;SDS011;50167;47.958;21.780;2024-01-15T00:59:31;78.42;;;44.55;;
63975;SDS011;50167;47.958;21.780;2024-01-15T01:01:58;75.90;;;42.43;;
63975;SDS011;50167;47.958;21.780;2024-01-15T01:04:24;84.03;;;44.83;;
63975;SDS011;50167;47.958;21.780;2024-01-15T01:06:51;83.00;;;45.48;;
63975;SDS011;50167;47.958;21.780;2024-01-15T01:09:17;72.58;;;40.65;;
63975;SDS011;50167;47.958;21.780;2024-01-15T01:11:43;73.07;;;42.07;;
63975;SDS011;50167;47.958;21.780;2024-01-15T01:14:09;79.30;;;44.55;;
63975;SDS011;50167;47.958;21.780;2024-01-15T01:16:35;83.82;;;44.95;;
63975;SDS011;50167;47.958;21.780;2024-01-15T01:19:04;81.28;;;43.13;;
63975;SDS011;50167;47.958;21.780;2024-01-15T01:21:32;81.35;;;43.87;;
63975;SDS011;50167;47.958;21.780;2024-01-15T01:23:59;76.28;;;41.92;;
63975;SDS011;50167;47.958;21.780;2024-01-15T01:26:26;86.75;;;42.40;;
63975;SDS011;50167;47.958;21.780;2024-01-15T01:28:52;82.75;;;46.05;;
63975;SDS011;50167;47.958;21.780;2024-01-15T01:31:18;74.60;;;42.88;;
63975;SDS011;50167;47.958;21.780;2024-01-15T01:33:44;78.97;;;43.08;;
63975;SDS011;50167;47.958;21.780;2024-01-15T01:36:10;85.57;;;44.95;;
63975;SDS011;50167;47.958;21.780;2024-01-15T01:38:37;93.42;;;45.12;;
63975;SDS011;50167;47.958;21.780;2024-01-15T01:41:04;76.70;;;42.90;;
63975;SDS011;50167;47.958;21.780;2024-01-15T01:43:30;85.97;;;47.70;;
63975;SDS011;50167;47.958;21.780;2024-01-15T01:45:56;83.37;;;45.45;;
63975;SDS011;50167;47.958;21.780;2024-01-15T01:48:26;86.97;;;46.42;;
63975;SDS011;50167;47.958;21.780;2024-01-15T01:50:53;81.00;;;45.52;;
63975;SDS011;50167;47.958;21.780;2024-01-15T01:53:26;82.30;;;45.95;;
63975;SDS011;50167;47.958;21.780;2024-01-15T01:55:53;81.47;;;45.45;;
63975;SDS011;50167;47.958;21.780;2024-01-15T01:58:21;79.67;;;43.85;;
63975;SDS011;50167;47.958;21.780;2024-01-15T02:00:47;83.00;;;45.65;;
63975;SDS011;50167;47.958;21.780;2024-01-15T02:03:14;83.62;;;45.28;;
63975;SDS011;50167;47.958;21.780;2024-01-15T02:05:42;83.35;;;41.73;;
63975;SDS011;50167;47.958;21.780;2024-01-15T02:08:11;77.78;;;42.50;;
63975;SDS011;50167;47.958;21.780;2024-01-15T02:10:37;79.97;;;43.70;;
63975;SDS011;50167;47.958;21.780;2024-01-15T02:13:03;81.15;;;42.90;;
63975;SDS011;50167;47.958;21.780;2024-01-15T02:15:29;82.78;;;45.92;;
63975;SDS011;50167;47.958;21.780;2024-01-15T02:17:56;75.57;;;44.42;;
63975;SDS011;50167;47.958;21.780;2024-01-15T02:20:29;77.85;;;43.28;;
63975;SDS011;50167;47.958;21.780;2024-01-15T02:23:06;76.33;;;43.83;;
63975;SDS011;50167;47.958;21.780;2024-01-15T02:25:37;76.20;;;41.10;;
63975;SDS011;50167;47.958;21.780;2024-01-15T02:28:05;72.12;;;40.65;;
63975;SDS011;50167;47.958;21.780;2024-01-15T02:30:36;73.15;;;42.78;;
63975;SDS011;50167;47.958;21.780;2024-01-15T02:33:07;76.97;;;41.25;;
63975;SDS011;50167;47.958;21.780;2024-01-15T02:35:34;81.87;;;44.63;;
63975;SDS011;50167;47.958;21.780;2024-01-15T02:38:04;71.25;;;39.08;;
63975;SDS011;50167;47.958;21.780;2024-01-15T02:40:32;75.80;;;42.03;;
63975;SDS011;50167;47.958;21.780;2024-01-15T02:43:00;81.90;;;42.20;;
63975;SDS011;50167;47.958;21.780;2024-01-15T02:45:26;73.05;;;39.88;;
63975;SDS011;50167;47.958;21.780;2024-01-15T02:47:53;67.45;;;38.28;;
63975;SDS011;50167;47.958;21.780;2024-01-15T02:50:19;74.87;;;40.43;;
63975;SDS011;50167;47.958;21.780;2024-01-15T02:52:45;79.32;;;42.45;;
63975;SDS011;50167;47.958;21.780;2024-01-15T02:55:11;76.82;;;40.50;;
63975;SDS011;50167;47.958;21.780;2024-01-15T02:57:38;69.42;;;39.25;;
63975;SDS011;50167;47.958;21.780;2024-01-15T03:00:04;71.40;;;39.58;;
63975;SDS011;50167;47.958;21.780;2024-01-15T03:02:32;71.25;;;39.03;;
63975;SDS011;50167;47.958;21.780;2024-01-15T03:05:10;71.55;;;39.38;;
63975;SDS011;50167;47.958;21.780;2024-01-15T03:07:37;68.97;;;35.63;;
63975;SDS011;50167;47.958;21.780;2024-01-15T03:10:04;68.40;;;36.90;;
63975;SDS011;50167;47.958;21.780;2024-01-15T03:12:32;63.63;;;36.77;;
63975;SDS011;50167;47.958;21.780;2024-01-15T03:14:58;69.60;;;39.95;;
63975;SDS011;50167;47.958;21.780;2024-01-15T03:17:25;75.55;;;41.28;;
63975;SDS011;50167;47.958;21.780;2024-01-15T03:19:51;67.32;;;36.55;;
63975;SDS011;50167;47.958;21.780;2024-01-15T03:22:17;64.22;;;36.10;;
63975;SDS011;50167;47.958;21.780;2024-01-15T03:24:43;65.47;;;35.33;;
63975;SDS011;50167;47.958;21.780;2024-01-15T03:27:10;71.57;;;37.05;;
63975;SDS011;50167;47.958;21.780;2024-01-15T03:29:37;65.47;;;35.73;;
63975;SDS011;50167;47.958;21.780;2024-01-15T03:32:03;58.73;;;33.53;;
63975;SDS011;50167;47.958;21.780;2024-01-15T03:34:29;63.42;;;35.35;;
63975;SDS011;50167;47.958;21.780;2024-01-15T03:36:56;60.67;;;34.10;;
63975;SDS011;50167;47.958;21.780;2024-01-15T03:39:22;63.45;;;34.90;;
63975;SDS011;50167;47.958;21.780;2024-01-15T03:41:55;57.23;;;32.25;;
63975;SDS011;50167;47.958;21.780;2024-01-15T03:44:18;64.47;;;35.73;;
63975;SDS011;50167;47.958;21.780;2024-01-15T03:46:44;57.07;;;33.43;;
63975;SDS011;50167;47.958;21.780;2024-01-15T03:49:11;62.58;;;33.70;;
63975;SDS011;50167;47.958;21.780;2024-01-15T03:51:37;65.30;;;35.37;;
63975;SDS011;50167;47.958;21.780;2024-01-15T03:54:03;61.05;;;33.40;;
63975;SDS011;50167;47.958;21.780;2024-01-15T03:56:30;62.60;;;34.58;;
63975;SDS011;50167;47.958;21.780;2024-01-15T03:58:56;59.65;;;31.40;;
63975;SDS011;50167;47.958;21.780;2024-01-15T04:01:22;59.70;;;33.08;;
63975;SDS011;50167;47.958;21.780;2024-01-15T04:03:48;53.13;;;32.27;;
63975;SDS011;50167;47.958;21.780;2024-01-15T04:06:14;58.53;;;32.83;;
63975;SDS011;50167;47.958;21.780;2024-01-15T04:08:41;54.90;;;29.63;;
63975;SDS011;50167;47.958;21.780;2024-01-15T04:11:07;55.67;;;31.63;;
63975;SDS011;50167;47.958;21.780;2024-01-15T04:13:33;65.63;;;33.17;;
63975;SDS011;50167;47.958;21.780;2024-01-15T04:16:00;59.53;;;32.93;;
63975;SDS011;50167;47.958;21.780;2024-01-15T04:18:26;69.00;;;38.45;;
63975;SDS011;50167;47.958;21.780;2024-01-15T04:20:53;61.57;;;33.87;;
63975;SDS011;50167;47.958;21.780;2024-01-15T04:23:19;65.70;;;36.33;;
63975;SDS011;50167;47.958;21.780;2024-01-15T04:25:46;69.07;;;40.27;;
63975;SDS011;50167;47.958;21.780;2024-01-15T04:28:12;61.43;;;35.17;;
63975;SDS011;50167;47.958;21.780;2024-01-15T04:30:38;60.80;;;35.80;;
63975;SDS011;50167;47.958;21.780;2024-01-15T04:33:04;62.83;;;35.13;;
63975;SDS011;50167;47.958;21.780;2024-01-15T04:35:31;52.20;;;30.23;;
63975;SDS011;50167;47.958;21.780;2024-01-15T04:37:58;54.20;;;32.10;;
63975;SDS011;50167;47.958;21.780;2024-01-15T04:40:24;52.67;;;30.77;;
63975;SDS011;50167;47.958;21.780;2024-01-15T04:42:52;55.03;;;29.27;;
63975;SDS011;50167;47.958;21.780;2024-01-15T04:45:19;54.10;;;29.03;;
63975;SDS011;50167;47.958;21.780;2024-01-15T04:47:48;57.43;;;31.23;;
63975;SDS011;50167;47.958;21.780;2024-01-15T04:50:15;56.63;;;30.27;;
63975;SDS011;50167;47.958;21.780;2024-01-15T04:52:41;59.63;;;29.60;;
63975;SDS011;50167;47.958;21.780;2024-01-15T04:55:07;57.47;;;33.23;;
63975;SDS011;50167;47.958;21.780;2024-01-15T04:57:34;48.63;;;28.13;;
63975;SDS011;50167;47.958;21.780;2024-01-15T05:00:00;56.87;;;31.20;;
63975;SDS011;50167;47.958;21.780;2024-01-15T05:02:26;56.13;;;31.03;;
63975;SDS011;50167;47.958;21.780;2024-01-15T05:04:52;62.00;;;33.23;;
63975;SDS011;50167;47.958;21.780;2024-01-15T05:07:19;60.17;;;30.17;;
63975;SDS011;50167;47.958;21.780;2024-01-15T05:09:45;61.07;;;31.70;;
63975;SDS011;50167;47.958;21.780;2024-01-15T05:12:11;52.73;;;28.77;;
63975;SDS011;50167;47.958;21.780;2024-01-15T05:14:37;49.70;;;27.43;;
63975;SDS011;50167;47.958;21.780;2024-01-15T05:17:03;52.53;;;30.40;;
63975;SDS011;50167;47.958;21.780;2024-01-15T05:19:29;54.90;;;27.50;;
63975;SDS011;50167;47.958;21.780;2024-01-15T05:21:55;47.27;;;27.57;;
63975;SDS011;50167;47.958;21.780;2024-01-15T05:24:22;50.47;;;27.73;;
63975;SDS011;50167;47.958;21.780;2024-01-15T05:26:48;48.40;;;26.90;;
63975;SDS011;50167;47.958;21.780;2024-01-15T05:29:14;52.70;;;29.63;;
63975;SDS011;50167;47.958;21.780;2024-01-15T05:31:40;55.77;;;30.87;;
63975;SDS011;50167;47.958;21.780;2024-01-15T05:34:06;47.13;;;27.70;;
63975;SDS011;50167;47.958;21.780;2024-01-15T05:36:33;51.50;;;25.07;;
63975;SDS011;50167;47.958;21.780;2024-01-15T05:38:59;50.20;;;27.77;;
63975;SDS011;50167;47.958;21.780;2024-01-15T05:41:25;49.90;;;26.70;;
63975;SDS011;50167;47.958;21.780;2024-01-15T05:43:52;55.30;;;26.73;;
63975;SDS011;50167;47.958;21.780;2024-01-15T05:46:18;53.67;;;26.63;;
63975;SDS011;50167;47.958;21.780;2024-01-15T05:48:44;49.43;;;26.13;;
63975;SDS011;50167;47.958;21.780;2024-01-15T05:51:10;50.20;;;24.37;;
63975;SDS011;50167;47.958;21.780;2024-01-15T05:53:37;51.30;;;27.10;;
63975;SDS011;50167;47.958;21.780;2024-01-15T05:56:05;56.90;;;24.63;;
63975;SDS011;50167;47.958;21.780;2024-01-15T05:58:32;43.47;;;23.20;;
63975;SDS011;50167;47.958;21.780;2024-01-15T06:00:58;48.63;;;25.97;;
63975;SDS011;50167;47.958;21.780;2024-01-15T06:03:24;48.07;;;23.10;;
63975;SDS011;50167;47.958;21.780;2024-01-15T06:05:50;39.33;;;22.77;;
63975;SDS011;50167;47.958;21.780;2024-01-15T06:08:17;38.27;;;21.77;;
63975;SDS011;50167;47.958;21.780;2024-01-15T06:10:44;43.40;;;22.67;;
63975;SDS011;50167;47.958;21.780;2024-01-15T06:13:10;42.03;;;23.67;;
63975;SDS011;50167;47.958;21.780;2024-01-15T06:15:36;43.77;;;22.37;;
63975;SDS011;50167;47.958;21.780;2024-01-15T06:18:03;38.30;;;22.27;;
63975;SDS011;50167;47.958;21.780;2024-01-15T06:20:29;41.77;;;23.83;;
63975;SDS011;50167;47.958;21.780;2024-01-15T06:22:56;46.50;;;24.43;;
63975;SDS011;50167;47.958;21.780;2024-01-15T06:25:22;44.17;;;24.07;;
63975;SDS011;50167;47.958;21.780;2024-01-15T06:27:48;42.27;;;22.33;;
63975;SDS011;50167;47.958;21.780;2024-01-15T06:30:14;41.13;;;21.57;;
63975;SDS011;50167;47.958;21.780;2024-01-15T06:32:40;47.90;;;24.63;;
63975;SDS011;50167;47.958;21.780;2024-01-15T06:35:07;46.00;;;23.87;;
63975;SDS011;50167;47.958;21.780;2024-01-15T06:37:35;47.13;;;26.63;;
63975;SDS011;50167;47.958;21.780;2024-01-15T06:40:01;47.87;;;25.17;;
63975;SDS011;50167;47.958;21.780;2024-01-15T06:42:28;42.37;;;25.13;;
63975;SDS011;50167;47.958;21.780;2024-01-15T06:44:54;46.83;;;25.90;;
63975;SDS011;50167;47.958;21.780;2024-01-15T06:47:21;43.63;;;24.83;;
63975;SDS011;50167;47.958;21.780;2024-01-15T06:49:47;43.03;;;23.63;;
63975;SDS011;50167;47.958;21.780;2024-01-15T06:52:13;48.73;;;26.57;;
63975;SDS011;50167;47.958;21.780;2024-01-15T06:54:39;49.00;;;26.03;;
63975;SDS011;50167;47.958;21.780;2024-01-15T06:57:05;47.10;;;25.87;;
63975;SDS011;50167;47.958;21.780;2024-01-15T06:59:32;55.00;;;26.10;;
63975;SDS011;50167;47.958;21.780;2024-01-15T07:02:00;47.77;;;25.30;;
63975;SDS011;50167;47.958;21.780;2024-01-15T07:04:31;43.37;;;26.17;;
63975;SDS011;50167;47.958;21.780;2024-01-15T07:06:54;57.43;;;27.67;;
63975;SDS011;50167;47.958;21.780;2024-01-15T07:09:21;43.30;;;26.27;;
63975;SDS011;50167;47.958;21.780;2024-01-15T07:11:48;48.33;;;24.67;;
63975;SDS011;50167;47.958;21.780;2024-01-15T07:14:14;43.00;;;25.70;;
63975;SDS011;50167;47.958;21.780;2024-01-15T07:16:40;47.50;;;26.10;;
63975;SDS011;50167;47.958;21.780;2024-01-15T07:19:07;46.73;;;25.63;;
63975;SDS011;50167;47.958;21.780;2024-01-15T07:21:34;49.57;;;27.37;;
63975;SDS011;50167;47.958;21.780;2024-01-15T07:24:01;52.40;;;27.10;;
63975;SDS011;50167;47.958;21.780;2024-01-15T07:26:27;50.37;;;28.00;;
63975;SDS011;50167;47.958;21.780;2024-01-15T07:28:53;49.67;;;26.50;;
63975;SDS011;50167;47.958;21.780;2024-01-15T07:31:19;53.80;;;27.60;;
63975;SDS011;50167;47.958;21.780;2024-01-15T07:33:46;62.00;;;30.27;;
63975;SDS011;50167;47.958;21.780;2024-01-15T07:36:12;51.13;;;28.63;;
63975;SDS011;50167;47.958;21.780;2024-01-15T07:38:38;55.50;;;28.97;;
63975;SDS011;50167;47.958;21.780;2024-01-15T07:41:04;49.63;;;28.57;;
63975;SDS011;50167;47.958;21.780;2024-01-15T07:43:30;54.73;;;31.27;;
63975;SDS011;50167;47.958;21.780;2024-01-15T07:45:56;57.67;;;30.47;;
63975;SDS011;50167;47.958;21.780;2024-01-15T07:48:23;58.33;;;30.13;;
63975;SDS011;50167;47.958;21.780;2024-01-15T07:50:50;66.13;;;33.57;;
63975;SDS011;50167;47.958;21.780;2024-01-15T07:53:16;64.60;;;33.30;;
63975;SDS011;50167;47.958;21.780;2024-01-15T07:55:42;59.70;;;31.50;;
63975;SDS011;50167;47.958;21.780;2024-01-15T07:58:08;56.70;;;32.03;;
63975;SDS011;50167;47.958;21.780;2024-01-15T08:00:34;58.63;;;32.37;;
63975;SDS011;50167;47.958;21.780;2024-01-15T08:03:04;57.87;;;32.70;;
63975;SDS011;50167;47.958;21.780;2024-01-15T08:05:30;53.23;;;29.73;;
63975;SDS011;50167;47.958;21.780;2024-01-15T08:07:58;57.33;;;31.73;;
63975;SDS011;50167;47.958;21.780;2024-01-15T08:10:24;52.63;;;31.43;;
63975;SDS011;50167;47.958;21.780;2024-01-15T08:12:51;60.10;;;31.90;;
63975;SDS011;50167;47.958;21.780;2024-01-15T08:15:17;61.67;;;33.40;;
63975;SDS011;50167;47.958;21.780;2024-01-15T08:17:43;55.30;;;30.27;;
63975;SDS011;50167;47.958;21.780;2024-01-15T08:20:09;58.23;;;33.13;;
63975;SDS011;50167;47.958;21.780;2024-01-15T08:22:38;68.70;;;35.40;;
63975;SDS011;50167;47.958;21.780;2024-01-15T08:25:04;63.17;;;36.37;;
63975;SDS011;50167;47.958;21.780;2024-01-15T08:27:31;57.57;;;31.50;;
63975;SDS011;50167;47.958;21.780;2024-01-15T08:29:58;57.40;;;34.67;;
63975;SDS011;50167;47.958;21.780;2024-01-15T08:32:24;57.37;;;33.00;;
63975;SDS011;50167;47.958;21.780;2024-01-15T08:34:50;60.27;;;31.73;;
63975;SDS011;50167;47.958;21.780;2024-01-15T08:37:18;58.87;;;31.73;;
63975;SDS011;50167;47.958;21.780;2024-01-15T08:39:45;54.53;;;30.60;;
63975;SDS011;50167;47.958;21.780;2024-01-15T08:42:11;55.17;;;32.90;;
63975;SDS011;50167;47.958;21.780;2024-01-15T08:44:37;51.80;;;30.70;;
63975;SDS011;50167;47.958;21.780;2024-01-15T08:47:05;66.97;;;36.63;;
63975;SDS011;50167;47.958;21.780;2024-01-15T08:49:31;54.97;;;32.70;;
63975;SDS011;50167;47.958;21.780;2024-01-15T08:51:57;56.83;;;34.90;;
63975;SDS011;50167;47.958;21.780;2024-01-15T08:54:24;62.00;;;34.27;;
63975;SDS011;50167;47.958;21.780;2024-01-15T08:56:50;59.03;;;34.43;;
63975;SDS011;50167;47.958;21.780;2024-01-15T08:59:16;53.73;;;32.30;;
63975;SDS011;50167;47.958;21.780;2024-01-15T09:01:44;69.13;;;36.17;;
63975;SDS011;50167;47.958;21.780;2024-01-15T09:04:10;62.10;;;34.67;;
63975;SDS011;50167;47.958;21.780;2024-01-15T09:06:36;63.23;;;35.17;;
63975;SDS011;50167;47.958;21.780;2024-01-15T09:09:03;59.13;;;32.77;;
63975;SDS011;50167;47.958;21.780;2024-01-15T09:11:29;70.67;;;37.43;;
63975;SDS011;50167;47.958;21.780;2024-01-15T09:13:55;59.87;;;33.83;;
63975;SDS011;50167;47.958;21.780;2024-01-15T09:16:21;56.53;;;31.20;;
63975;SDS011;50167;47.958;21.780;2024-01-15T09:18:48;55.67;;;32.67;;
63975;SDS011;50167;47.958;21.780;2024-01-15T09:21:14;64.67;;;34.50;;
63975;SDS011;50167;47.958;21.780;2024-01-15T09:23:40;57.63;;;34.77;;
63975;SDS011;50167;47.958;21.780;2024-01-15T09:26:07;57.37;;;33.50;;
63975;SDS011;50167;47.958;21.780;2024-01-15T09:28:34;53.20;;;32.13;;
63975;SDS011;50167;47.958;21.780;2024-01-15T09:31:00;65.23;;;34.60;;
63975;SDS011;50167;47.958;21.780;2024-01-15T09:33:26;62.37;;;32.40;;
63975;SDS011;50167;47.958;21.780;2024-01-15T09:35:52;56.47;;;29.17;;
63975;SDS011;50167;47.958;21.780;2024-01-15T09:38:19;51.53;;;30.13;;
63975;SDS011;50167;47.958;21.780;2024-01-15T09:40:46;54.57;;;31.63;;
63975;SDS011;50167;47.958;21.780;2024-01-15T09:43:12;55.90;;;32.70;;
63975;SDS011;50167;47.958;21.780;2024-01-15T09:45:40;47.93;;;28.50;;
63975;SDS011;50167;47.958;21.780;2024-01-15T09:48:07;42.87;;;23.70;;
63975;SDS011;50167;47.958;21.780;2024-01-15T09:50:33;43.63;;;26.80;;
63975;SDS011;50167;47.958;21.780;2024-01-15T09:52:59;41.17;;;24.47;;
63975;SDS011;50167;47.958;21.780;2024-01-15T09:55:27;44.30;;;26.30;;
63975;SDS011;50167;47.958;21.780;2024-01-15T09:57:54;37.90;;;23.70;;
63975;SDS011;50167;47.958;21.780;2024-01-15T10:00:21;35.43;;;22.70;;
63975;SDS011;50167;47.958;21.780;2024-01-15T10:02:48;36.30;;;20.63;;
63975;SDS011;50167;47.958;21.780;2024-01-15T10:05:14;32.73;;;20.20;;
63975;SDS011;50167;47.958;21.780;2024-01-15T10:07:41;35.33;;;20.93;;
63975;SDS011;50167;47.958;21.780;2024-01-15T10:10:10;32.07;;;20.80;;
63975;SDS011;50167;47.958;21.780;2024-01-15T10:12:37;31.97;;;20.40;;
63975;SDS011;50167;47.958;21.780;2024-01-15T10:15:04;32.50;;;21.70;;
63975;SDS011;50167;47.958;21.780;2024-01-15T10:17:31;32.97;;;19.90;;
63975;SDS011;50167;47.958;21.780;2024-01-15T10:19:57;29.80;;;19.33;;
63975;SDS011;50167;47.958;21.780;2024-01-15T10:22:24;31.10;;;19.80;;
63975;SDS011;50167;47.958;21.780;2024-01-15T10:24:51;32.87;;;20.27;;
63975;SDS011;50167;47.958;21.780;2024-01-15T10:27:17;32.40;;;19.20;;
63975;SDS011;50167;47.958;21.780;2024-01-15T10:29:43;32.60;;;19.93;;
63975;SDS011;50167;47.958;21.780;2024-01-15T10:32:10;33.47;;;21.63;;
63975;SDS011;50167;47.958;21.780;2024-01-15T10:34:38;35.73;;;21.00;;
63975;SDS011;50167;47.958;21.780;2024-01-15T10:37:06;35.00;;;21.27;;
63975;SDS011;50167;47.958;21.780;2024-01-15T10:39:34;27.80;;;17.40;;
63975;SDS011;50167;47.958;21.780;2024-01-15T10:42:01;34.47;;;23.10;;
63975;SDS011;50167;47.958;21.780;2024-01-15T10:44:28;33.37;;;21.57;;
63975;SDS011;50167;47.958;21.780;2024-01-15T10:46:55;30.10;;;20.57;;
63975;SDS011;50167;47.958;21.780;2024-01-15T10:49:22;34.30;;;22.00;;
63975;SDS011;50167;47.958;21.780;2024-01-15T10:51:50;44.90;;;25.77;;
63975;SDS011;50167;47.958;21.780;2024-01-15T10:54:19;35.27;;;22.73;;
63975;SDS011;50167;47.958;21.780;2024-01-15T10:56:46;37.43;;;22.30;;
63975;SDS011;50167;47.958;21.780;2024-01-15T10:59:13;38.47;;;23.73;;
63975;SDS011;50167;47.958;21.780;2024-01-15T11:01:39;41.20;;;25.13;;
63975;SDS011;50167;47.958;21.780;2024-01-15T11:04:08;34.50;;;22.17;;
63975;SDS011;50167;47.958;21.780;2024-01-15T11:06:41;36.57;;;21.83;;
63975;SDS011;50167;47.958;21.780;2024-01-15T11:09:11;33.30;;;22.20;;
63975;SDS011;50167;47.958;21.780;2024-01-15T11:11:43;37.20;;;22.60;;
63975;SDS011;50167;47.958;21.780;2024-01-15T11:17:09;32.53;;;20.90;;
63975;SDS011;50167;47.958;21.780;2024-01-15T11:19:37;33.57;;;21.17;;
63975;SDS011;50167;47.958;21.780;2024-01-15T11:22:09;34.00;;;20.73;;
63975;SDS011;50167;47.958;21.780;2024-01-15T11:24:39;34.37;;;21.30;;
63975;SDS011;50167;47.958;21.780;2024-01-15T11:27:10;34.77;;;21.13;;
63975;SDS011;50167;47.958;21.780;2024-01-15T11:29:35;36.93;;;23.33;;
63975;SDS011;50167;47.958;21.780;2024-01-15T11:32:08;31.77;;;20.50;;
63975;SDS011;50167;47.958;21.780;2024-01-15T11:37:26;31.45;;;20.43;;
63975;SDS011;50167;47.958;21.780;2024-01-15T11:40:13;28.60;;;17.97;;
63975;SDS011;50167;47.958;21.780;2024-01-15T11:42:42;28.70;;;18.73;;
63975;SDS011;50167;47.958;21.780;2024-01-15T11:45:08;27.33;;;18.73;;
63975;SDS011;50167;47.958;21.780;2024-01-15T11:50:30;29.07;;;19.50;;
63975;SDS011;50167;47.958;21.780;2024-01-15T11:53:00;31.70;;;17.63;;
63975;SDS011;50167;47.958;21.780;2024-01-15T11:55:34;26.67;;;17.27;;
63975;SDS011;50167;47.958;21.780;2024-01-15T11:58:05;32.67;;;22.93;;
63975;SDS011;50167;47.958;21.780;2024-01-15T12:00:42;30.43;;;19.63;;
63975;SDS011;50167;47.958;21.780;2024-01-15T12:03:12;27.17;;;17.43;;
63975;SDS011;50167;47.958;21.780;2024-01-15T12:05:38;31.97;;;19.80;;
63975;SDS011;50167;47.958;21.780;2024-01-15T12:08:05;34.30;;;19.37;;
63975;SDS011;50167;47.958;21.780;2024-01-15T12:15:45;65.87;;;39.37;;
63975;SDS011;50167;47.958;21.780;2024-01-15T12:18:14;31.23;;;19.47;;
63975;SDS011;50167;47.958;21.780;2024-01-15T12:20:43;57.57;;;26.63;;
63975;SDS011;50167;47.958;21.780;2024-01-15T12:23:12;30.73;;;19.77;;
63975;SDS011;50167;47.958;21.780;2024-01-15T12:25:42;45.38;;;26.48;;
63975;SDS011;50167;47.958;21.780;2024-01-15T12:28:09;36.27;;;20.60;;
63975;SDS011;50167;47.958;21.780;2024-01-15T12:30:35;32.33;;;19.90;;
63975;SDS011;50167;47.958;21.780;2024-01-15T12:33:03;30.67;;;20.57;;
63975;SDS011;50167;47.958;21.780;2024-01-15T12:35:33;30.73;;;18.87;;
63975;SDS011;50167;47.958;21.780;2024-01-15T12:38:00;31.23;;;19.10;;
63975;SDS011;50167;47.958;21.780;2024-01-15T12:40:28;27.40;;;17.80;;
63975;SDS011;50167;47.958;21.780;2024-01-15T12:42:54;27.63;;;17.10;;
63975;SDS011;50167;47.958;21.780;2024-01-15T12:45:21;34.70;;;21.87;;
63975;SDS011;50167;47.958;21.780;2024-01-15T12:47:47;42.40;;;22.37;;
63975;SDS011;50167;47.958;21.780;2024-01-15T12:50:14;46.83;;;21.57;;
63975;SDS011;50167;47.958;21.780;2024-01-15T12:52:40;35.40;;;23.67;;
63975;SDS011;50167;47.958;21.780;2024-01-15T12:55:07;29.87;;;19.50;;
63975;SDS011;50167;47.958;21.780;2024-01-15T12:57:35;36.77;;;20.57;;
63975;SDS011;50167;47.958;21.780;2024-01-15T13:00:06;34.23;;;20.03;;
63975;SDS011;50167;47.958;21.780;2024-01-15T13:02:33;33.13;;;21.87;;
63975;SDS011;50167;47.958;21.780;2024-01-15T13:05:00;32.17;;;20.17;;
63975;SDS011;50167;47.958;21.780;2024-01-15T13:07:26;30.77;;;17.67;;
63975;SDS011;50167;47.958;21.780;2024-01-15T13:09:53;34.97;;;19.47;;
63975;SDS011;50167;47.958;21.780;2024-01-15T13:12:20;34.60;;;21.50;;
63975;SDS011;50167;47.958;21.780;2024-01-15T13:14:47;35.57;;;22.37;;
63975;SDS011;50167;47.958;21.780;2024-01-15T13:17:14;28.47;;;18.13;;
63975;SDS011;50167;47.958;21.780;2024-01-15T13:19:40;29.33;;;19.63;;
63975;SDS011;50167;47.958;21.780;2024-01-15T13:22:06;27.03;;;17.63;;
63975;SDS011;50167;47.958;21.780;2024-01-15T13:24:35;28.90;;;19.73;;
63975;SDS011;50167;47.958;21.780;2024-01-15T13:27:06;26.97;;;17.27;;
63975;SDS011;50167;47.958;21.780;2024-01-15T13:29:30;32.37;;;20.00;;
63975;SDS011;50167;47.958;21.780;2024-01-15T13:31:57;37.33;;;20.93;;
63975;SDS011;50167;47.958;21.780;2024-01-15T13:34:24;30.47;;;17.93;;
63975;SDS011;50167;47.958;21.780;2024-01-15T13:36:51;28.80;;;17.97;;
63975;SDS011;50167;47.958;21.780;2024-01-15T13:39:18;25.67;;;17.20;;
63975;SDS011;50167;47.958;21.780;2024-01-15T13:41:48;26.93;;;15.17;;
63975;SDS011;50167;47.958;21.780;2024-01-15T13:44:15;32.50;;;17.80;;
63975;SDS011;50167;47.958;21.780;2024-01-15T13:46:41;48.13;;;21.60;;
63975;SDS011;50167;47.958;21.780;2024-01-15T13:49:07;33.43;;;21.03;;
63975;SDS011;50167;47.958;21.780;2024-01-15T13:51:35;32.30;;;20.37;;
63975;SDS011;50167;47.958;21.780;2024-01-15T13:54:02;46.43;;;26.77;;
63975;SDS011;50167;47.958;21.780;2024-01-15T13:56:32;38.50;;;21.23;;
63975;SDS011;50167;47.958;21.780;2024-01-15T13:59:00;33.27;;;20.07;;
63975;SDS011;50167;47.958;21.780;2024-01-15T14:01:26;38.37;;;23.33;;
63975;SDS011;50167;47.958;21.780;2024-01-15T14:03:54;33.57;;;19.73;;
63975;SDS011;50167;47.958;21.780;2024-01-15T14:06:20;43.47;;;20.03;;
63975;SDS011;50167;47.958;21.780;2024-01-15T14:08:47;32.23;;;19.23;;
63975;SDS011;50167;47.958;21.780;2024-01-15T14:11:13;36.87;;;20.63;;
63975;SDS011;50167;47.958;21.780;2024-01-15T14:13:40;37.87;;;19.20;;
63975;SDS011;50167;47.958;21.780;2024-01-15T14:16:06;35.30;;;20.30;;
63975;SDS011;50167;47.958;21.780;2024-01-15T14:18:32;47.60;;;22.07;;
63975;SDS011;50167;47.958;21.780;2024-01-15T14:20:58;41.07;;;20.63;;